createdAt,value
2018-04-13T00:01:14.342Z,21.40
2018-04-13T00:03:41.934Z,23.67
2018-04-13T00:06:09.570Z,23.70
2018-04-13T00:08:37.159Z,22.03
2018-04-13T00:11:04.790Z,23.90
2018-04-13T00:13:33.177Z,24.00
2018-04-13T00:16:00.802Z,23.30
2018-04-13T00:18:28.394Z,22.50
2018-04-13T00:20:56.019Z,22.63
2018-04-13T00:23:23.614Z,21.87
2018-04-13T00:25:51.246Z,22.07
2018-04-13T00:28:18.834Z,26.20
2018-04-13T00:30:46.451Z,24.30
2018-04-13T00:33:14.038Z,23.47
2018-04-13T00:35:41.655Z,23.90
2018-04-13T00:38:10.015Z,23.27
2018-04-13T00:40:37.639Z,24.27
2018-04-13T00:43:05.229Z,25.53
2018-04-13T00:45:32.852Z,23.40
2018-04-13T00:48:00.443Z,23.20
2018-04-13T00:50:28.075Z,23.30
2018-04-13T00:53:07.455Z,23.00
2018-04-13T00:55:35.083Z,25.20
2018-04-13T00:58:02.678Z,22.23
2018-04-13T01:00:30.575Z,21.10
2018-04-13T01:02:58.198Z,22.60
2018-04-13T01:05:25.791Z,24.43
2018-04-13T01:07:54.182Z,24.83
2018-04-13T01:10:21.772Z,24.50
2018-04-13T01:12:50.153Z,26.40
2018-04-13T01:15:17.754Z,26.90
2018-04-13T01:17:46.138Z,25.83
2018-04-13T01:20:14.509Z,24.57
2018-04-13T01:22:42.897Z,25.63
2018-04-13T01:25:11.255Z,25.93
2018-04-13T01:27:38.878Z,25.70
2018-04-13T01:30:06.473Z,26.80
2018-04-13T01:32:34.100Z,26.47
2018-04-13T01:35:01.692Z,28.27
2018-04-13T01:37:29.308Z,29.30
2018-04-13T01:39:56.898Z,27.50
2018-04-13T01:42:24.516Z,29.17
2018-04-13T01:44:52.121Z,28.90
2018-04-13T01:47:19.744Z,29.30
2018-04-13T01:49:47.339Z,28.60
2018-04-13T01:52:14.962Z,29.10
2018-04-13T01:54:42.558Z,28.97
2018-04-13T01:57:10.187Z,26.20
2018-04-13T01:59:37.799Z,27.53
2018-04-13T02:02:05.400Z,25.33
2018-04-13T02:04:33.791Z,27.93
2018-04-13T02:07:01.382Z,26.20
2018-04-13T02:09:28.977Z,26.60
2018-04-13T02:11:56.612Z,28.63
2018-04-13T02:14:24.210Z,30.00
2018-04-13T02:16:52.574Z,30.43
2018-04-13T02:19:20.194Z,28.50
2018-04-13T02:21:47.823Z,28.40
2018-04-13T02:24:15.410Z,28.07
2018-04-13T02:26:43.007Z,29.03
2018-04-13T02:29:10.632Z,28.47
2018-04-13T02:31:38.231Z,28.60
2018-04-13T02:34:05.851Z,28.80
2018-04-13T02:36:33.448Z,27.00
2018-04-13T02:39:01.070Z,27.00
2018-04-13T02:41:28.677Z,30.03
2018-04-13T02:43:56.299Z,30.10
2018-04-13T02:46:23.886Z,28.63
2018-04-13T02:48:51.520Z,29.70
2018-04-13T02:51:19.108Z,29.07
2018-04-13T02:53:46.703Z,29.10
2018-04-13T02:56:15.100Z,29.30
2018-04-13T02:58:42.699Z,28.80
2018-04-13T03:01:10.322Z,29.20
2018-04-13T03:03:37.918Z,28.90
2018-04-13T03:06:05.538Z,31.00
2018-04-13T03:08:33.134Z,30.03
2018-04-13T03:11:00.754Z,30.90
2018-04-13T03:13:28.355Z,31.70
2018-04-13T03:15:55.991Z,32.50
2018-04-13T03:18:23.593Z,30.60
2018-04-13T03:20:51.182Z,30.80
2018-04-13T03:23:19.578Z,30.63
2018-04-13T03:25:47.165Z,31.27
2018-04-13T03:28:14.761Z,31.57
2018-04-13T03:30:42.398Z,31.63
2018-04-13T03:33:10.021Z,31.17
2018-04-13T03:35:37.618Z,32.93
2018-04-13T03:38:05.213Z,30.77
2018-04-13T03:40:32.835Z,29.90
2018-04-13T03:43:00.431Z,31.40
2018-04-13T03:45:28.055Z,31.10
2018-04-13T03:47:55.642Z,31.13
2018-04-13T03:50:23.239Z,32.50
2018-04-13T03:52:51.630Z,31.87
2018-04-13T03:55:19.217Z,32.73
2018-04-13T03:57:46.840Z,30.80
2018-04-13T04:00:15.207Z,31.50
2018-04-13T04:02:43.590Z,31.67
2018-04-13T04:05:11.946Z,30.87
2018-04-13T04:07:40.399Z,32.63
2018-04-13T04:10:07.985Z,32.67
2018-04-13T04:12:35.597Z,34.57
2018-04-13T04:15:03.196Z,32.43
2018-04-13T04:17:30.826Z,32.83
2018-04-13T04:20:12.020Z,34.00
2018-04-13T04:22:51.558Z,33.53
2018-04-13T04:28:17.748Z,33.80
2018-04-13T04:30:46.183Z,32.20
2018-04-13T04:33:13.778Z,32.87
2018-04-13T04:35:41.412Z,34.30
2018-04-13T04:38:09.022Z,32.50
2018-04-13T04:40:37.393Z,34.43
2018-04-13T04:43:05.794Z,32.73
2018-04-13T04:45:33.387Z,32.90
2018-04-13T04:48:01.019Z,32.87
2018-04-13T04:50:28.614Z,34.03
2018-04-13T04:52:56.222Z,30.70
2018-04-13T04:55:24.607Z,34.97
2018-04-13T04:57:52.969Z,33.27
2018-04-13T05:00:21.350Z,34.83
2018-04-13T05:02:49.718Z,35.10
2018-04-13T05:05:18.123Z,34.10
2018-04-13T05:07:45.722Z,31.17
2018-04-13T05:10:13.318Z,31.83
2018-04-13T05:12:40.956Z,34.20
2018-04-13T05:15:08.556Z,35.37
2018-04-13T05:17:36.942Z,34.97
2018-04-13T05:20:04.534Z,34.30
2018-04-13T05:22:32.189Z,31.77
2018-04-13T05:24:59.771Z,34.60
2018-04-13T05:27:27.394Z,34.90
2018-04-13T05:29:55.000Z,33.07
2018-04-13T05:32:22.634Z,33.27
2018-04-13T05:34:50.239Z,33.73
2018-04-13T05:37:17.866Z,34.40
2018-04-13T05:39:45.461Z,35.37
2018-04-13T05:42:13.051Z,33.77
2018-04-13T05:44:41.436Z,34.90
2018-04-13T05:47:09.039Z,33.80
2018-04-13T05:49:36.674Z,31.60
2018-04-13T05:52:04.273Z,32.40
2018-04-13T05:54:31.873Z,34.57
2018-04-13T05:57:00.263Z,33.57
2018-04-13T05:59:27.918Z,33.00
2018-04-13T06:01:55.546Z,31.37
2018-04-13T06:04:23.138Z,29.23
2018-04-13T06:06:51.499Z,33.60
2018-04-13T06:09:19.130Z,32.20
2018-04-13T06:11:46.739Z,33.13
2018-04-13T06:14:15.132Z,32.63
2018-04-13T06:16:42.741Z,31.60
2018-04-13T06:19:10.371Z,33.10
2018-04-13T06:21:37.977Z,32.97
2018-04-13T06:24:05.604Z,32.17
2018-04-13T06:26:33.199Z,32.50
2018-04-13T06:29:00.824Z,32.67
2018-04-13T06:31:28.414Z,31.23
2018-04-13T06:33:56.043Z,31.70
2018-04-13T06:36:23.636Z,33.60
2018-04-13T06:38:51.259Z,33.77
2018-04-13T06:41:18.926Z,31.77
2018-04-13T06:43:46.551Z,31.57
2018-04-13T06:46:14.154Z,30.70
2018-04-13T06:48:41.858Z,33.50
2018-04-13T06:51:11.573Z,30.33
2018-04-13T06:53:39.330Z,32.30
2018-04-13T06:56:07.685Z,33.07
2018-04-13T06:58:35.344Z,32.37
2018-04-13T07:01:02.952Z,30.10
2018-04-13T07:03:30.580Z,32.40
2018-04-13T07:05:58.936Z,32.37
2018-04-13T07:08:26.550Z,33.17
2018-04-13T07:10:54.936Z,32.57
2018-04-13T07:13:22.565Z,30.87
2018-04-13T07:15:50.159Z,33.40
2018-04-13T07:18:17.750Z,33.20
2018-04-13T07:20:45.375Z,32.07
2018-04-13T07:23:12.967Z,35.07
2018-04-13T07:25:40.593Z,30.90
2018-04-13T07:28:08.947Z,33.57
2018-04-13T07:30:37.338Z,34.30
2018-04-13T07:33:05.697Z,34.33
2018-04-13T07:35:34.112Z,28.07
2018-04-13T07:38:01.724Z,32.03
2018-04-13T07:40:29.780Z,33.80
2018-04-13T07:42:56.959Z,32.23
2018-04-13T07:45:24.569Z,32.53
2018-04-13T07:47:52.165Z,33.37
2018-04-13T07:50:20.297Z,32.50
2018-04-13T07:52:47.406Z,33.07
2018-04-13T07:55:15.055Z,34.17
2018-04-13T07:57:42.650Z,35.27
2018-04-13T08:00:11.009Z,35.17
2018-04-13T08:02:38.628Z,31.80
2018-04-13T08:05:06.232Z,31.50
2018-04-13T08:07:33.858Z,34.80
2018-04-13T08:10:01.450Z,33.97
2018-04-13T08:12:29.838Z,33.13
2018-04-13T08:14:58.234Z,33.40
2018-04-13T08:17:26.705Z,34.30
2018-04-13T08:19:55.158Z,34.60
2018-04-13T08:22:22.924Z,34.33
2018-04-13T08:24:50.683Z,28.70
2018-04-13T08:27:18.453Z,37.40
2018-04-13T08:29:46.106Z,36.20
2018-04-13T08:32:13.935Z,35.93
2018-04-13T08:34:41.767Z,34.83
2018-04-13T08:37:10.238Z,32.23
2018-04-13T08:39:37.856Z,34.33
2018-04-13T08:42:05.647Z,34.47
2018-04-13T08:44:33.413Z,32.80
2018-04-13T08:47:01.274Z,33.67
2018-04-13T08:49:29.052Z,33.07
2018-04-13T08:51:56.682Z,34.80
2018-04-13T08:54:24.318Z,32.00
2018-04-13T08:56:52.019Z,32.23
2018-04-13T08:59:19.618Z,33.80
2018-04-13T09:01:47.983Z,34.73
2018-04-13T09:04:16.419Z,33.73
2018-04-13T09:06:44.030Z,32.13
2018-04-13T09:09:12.122Z,31.10
2018-04-13T09:11:39.926Z,31.07
2018-04-13T09:14:07.558Z,29.60
2018-04-13T09:16:35.154Z,29.43
2018-04-13T09:19:02.781Z,32.80
2018-04-13T09:21:30.383Z,30.60
2018-04-13T09:23:58.007Z,25.73
2018-04-13T09:26:25.607Z,24.40
2018-04-13T09:28:53.266Z,24.47
2018-04-13T09:31:20.861Z,23.87
2018-04-13T09:33:49.250Z,22.70
2018-04-13T09:36:17.619Z,21.90
2018-04-13T09:38:46.016Z,25.03
2018-04-13T09:41:13.615Z,20.27
2018-04-13T09:43:41.240Z,23.20
2018-04-13T09:46:08.848Z,19.83
2018-04-13T09:48:36.636Z,23.33
2018-04-13T09:51:04.354Z,22.07
2018-04-13T09:53:32.146Z,23.13
2018-04-13T09:55:59.740Z,21.30
2018-04-13T09:58:28.104Z,21.27
2018-04-13T10:01:00.673Z,24.63
2018-04-13T10:03:35.702Z,22.60
2018-04-13T10:06:03.654Z,20.23
2018-04-13T10:08:31.270Z,23.10
2018-04-13T10:10:59.853Z,20.60
2018-04-13T10:13:27.455Z,22.80
2018-04-13T10:15:55.086Z,22.50
2018-04-13T10:18:22.671Z,22.77
2018-04-13T10:20:50.305Z,20.87
2018-04-13T10:23:17.903Z,20.40
2018-04-13T10:25:45.522Z,20.60
2018-04-13T10:30:46.820Z,23.50
2018-04-13T10:33:14.422Z,21.00
2018-04-13T10:35:42.818Z,21.83
2018-04-13T10:38:10.429Z,22.40
2018-04-13T10:40:38.070Z,20.60
2018-04-13T10:43:05.710Z,21.40
2018-04-13T10:45:33.322Z,20.70
2018-04-13T10:48:00.918Z,23.60
2018-04-13T10:50:29.332Z,20.30
2018-04-13T10:52:57.008Z,22.60
2018-04-13T10:55:24.637Z,22.53
2018-04-13T10:57:52.230Z,21.70
2018-04-13T11:00:19.816Z,23.30
2018-04-13T11:02:48.419Z,24.10
2018-04-13T11:05:16.790Z,26.70
2018-04-13T11:07:44.410Z,23.00
2018-04-13T11:10:12.008Z,22.70
2018-04-13T11:12:39.633Z,29.80
2018-04-13T11:15:07.246Z,31.50
2018-04-13T11:17:35.639Z,28.93
2018-04-13T11:20:03.229Z,32.40
2018-04-13T11:22:30.850Z,26.50
2018-04-13T11:24:59.210Z,26.73
2018-04-13T11:27:26.835Z,30.67
2018-04-13T11:29:54.430Z,24.97
2018-04-13T11:32:22.052Z,25.60
2018-04-13T11:34:49.648Z,25.40
2018-04-13T11:37:17.289Z,22.30
2018-04-13T11:39:44.887Z,21.27
2018-04-13T11:42:13.437Z,24.03
2018-04-13T11:44:41.034Z,24.13
2018-04-13T11:47:09.422Z,21.17
2018-04-13T11:49:37.029Z,23.10
2018-04-13T11:52:04.686Z,24.43
2018-04-13T11:54:32.274Z,23.50
2018-04-13T11:56:59.874Z,22.90
2018-04-13T11:59:27.502Z,23.70
2018-04-13T12:01:55.879Z,25.30
2018-04-13T12:04:23.507Z,22.67
2018-04-13T12:06:51.099Z,20.97
2018-04-13T12:09:18.691Z,19.70
2018-04-13T12:11:46.322Z,22.00
2018-04-13T12:14:14.696Z,21.20
2018-04-13T12:16:43.067Z,20.50
2018-04-13T12:19:10.686Z,20.83
2018-04-13T12:21:38.270Z,22.17
2018-04-13T12:24:05.890Z,20.20
2018-04-13T12:26:33.511Z,20.43
2018-04-13T12:29:01.248Z,22.83
2018-04-13T12:31:29.133Z,19.40
2018-04-13T12:33:56.879Z,21.10
2018-04-13T12:36:24.479Z,22.10
2018-04-13T12:38:52.085Z,21.50
2018-04-13T12:41:20.553Z,19.27
2018-04-13T12:43:48.147Z,20.10
2018-04-13T12:46:16.030Z,19.23
2018-04-13T12:48:43.994Z,20.30
2018-04-13T12:51:11.591Z,18.57
2018-04-13T12:53:40.035Z,14.13
2018-04-13T12:56:07.610Z,12.40
2018-04-13T12:58:35.230Z,13.87
2018-04-13T13:01:02.838Z,14.40
2018-04-13T13:03:30.494Z,13.63
2018-04-13T13:05:58.878Z,13.27
2018-04-13T13:08:26.504Z,12.90
2018-04-13T13:10:54.103Z,13.63
2018-04-13T13:13:21.726Z,12.47
2018-04-13T13:15:49.443Z,11.80
2018-04-13T13:18:17.141Z,9.10
2018-04-13T13:20:44.767Z,8.90
2018-04-13T13:23:14.088Z,9.20
2018-04-13T13:25:41.692Z,10.27
2018-04-13T13:28:09.310Z,7.77
2018-04-13T13:30:36.912Z,8.83
2018-04-13T13:33:04.523Z,9.80
2018-04-13T13:35:32.119Z,9.97
2018-04-13T13:37:59.714Z,8.63
2018-04-13T13:40:27.337Z,9.17
2018-04-13T13:42:54.938Z,9.27
2018-04-13T13:45:22.563Z,8.80
2018-04-13T13:47:50.159Z,9.60
2018-04-13T13:50:17.789Z,9.63
2018-04-13T13:52:45.397Z,8.80
2018-04-13T13:55:13.790Z,9.43
2018-04-13T13:57:41.379Z,9.47
2018-04-13T14:00:09.014Z,9.43
2018-04-13T14:02:36.616Z,9.77
2018-04-13T14:05:04.269Z,10.00
2018-04-13T14:07:31.862Z,10.07
2018-04-13T14:09:59.483Z,11.13
2018-04-13T14:12:27.082Z,10.70
2018-04-13T14:14:54.725Z,10.03
2018-04-13T14:17:22.326Z,10.90
2018-04-13T14:19:50.718Z,9.63
2018-04-13T14:22:18.311Z,10.70
2018-04-13T14:24:45.904Z,9.77
2018-04-13T14:27:13.527Z,9.30
2018-04-13T14:29:41.112Z,8.83
2018-04-13T14:32:08.744Z,9.97
2018-04-13T14:34:36.446Z,8.30
2018-04-13T14:37:04.838Z,9.83
2018-04-13T14:39:33.190Z,9.67
2018-04-13T14:42:00.811Z,10.03
2018-04-13T14:44:28.410Z,9.43
2018-04-13T14:46:56.058Z,10.67
2018-04-13T14:49:23.657Z,10.23
2018-04-13T14:51:51.283Z,11.93
2018-04-13T14:54:18.942Z,10.17
2018-04-13T14:56:46.559Z,10.60
2018-04-13T14:59:14.930Z,12.13
2018-04-13T15:01:43.329Z,10.77
2018-04-13T15:04:10.930Z,11.10
2018-04-13T15:06:38.550Z,10.80
2018-04-13T15:09:06.149Z,13.57
2018-04-13T15:11:33.772Z,12.03
2018-04-13T15:14:01.368Z,13.07
2018-04-13T15:16:29.009Z,13.13
2018-04-13T15:18:56.606Z,11.93
2018-04-13T15:21:24.202Z,13.90
2018-04-13T15:23:52.591Z,13.17
2018-04-13T15:26:20.179Z,13.07
2018-04-13T15:28:47.807Z,14.77
2018-04-13T15:31:15.418Z,13.03
2018-04-13T15:33:43.043Z,13.43
2018-04-13T15:36:10.631Z,12.17
2018-04-13T15:38:38.263Z,12.03
2018-04-13T15:41:05.866Z,13.07
2018-04-13T15:43:33.487Z,12.80
2018-04-13T15:46:01.114Z,12.10
2018-04-13T15:48:29.498Z,12.63
2018-04-13T15:50:57.878Z,12.97
2018-04-13T15:53:26.271Z,12.40
2018-04-13T15:55:53.870Z,12.70
2018-04-13T15:58:22.140Z,12.20
2018-04-13T16:00:50.562Z,13.20
2018-04-13T16:03:18.958Z,11.40
2018-04-13T16:05:47.687Z,11.70
2018-04-13T16:08:19.410Z,11.77
2018-04-13T16:10:47.185Z,12.33
2018-04-13T16:13:15.192Z,13.40
2018-04-13T16:15:42.957Z,12.27
2018-04-13T16:18:14.869Z,9.77
2018-04-13T16:20:42.896Z,11.27
2018-04-13T16:23:10.670Z,12.10
2018-04-13T16:25:38.536Z,11.73
2018-04-13T16:28:06.388Z,10.43
2018-04-13T16:30:35.029Z,11.10
2018-04-13T16:33:02.847Z,11.30
2018-04-13T16:35:30.710Z,12.07
2018-04-13T16:37:58.572Z,10.70
2018-04-13T16:40:26.214Z,10.80
2018-04-13T16:42:53.811Z,10.97
2018-04-13T16:45:22.202Z,15.30
2018-04-13T16:47:49.807Z,19.33
2018-04-13T16:50:17.423Z,13.00
2018-04-13T16:52:45.031Z,11.17
2018-04-13T16:55:12.657Z,10.40
2018-04-13T16:57:41.433Z,7.30
2018-04-13T17:00:09.814Z,5.70
2018-04-13T17:02:38.172Z,6.53
2018-04-13T17:05:05.787Z,3.77
2018-04-13T17:07:33.379Z,3.93
2018-04-13T17:10:01.001Z,3.90
2018-04-13T17:12:28.594Z,3.60
2018-04-13T17:14:56.213Z,3.57
2018-04-13T17:17:23.803Z,3.40
2018-04-13T17:19:51.426Z,3.90
2018-04-13T17:22:19.786Z,3.27
2018-04-13T17:24:48.143Z,3.07
2018-04-13T17:27:15.756Z,2.70
2018-04-13T17:29:43.350Z,2.40
2018-04-13T17:32:10.963Z,3.63
2018-04-13T17:34:39.319Z,3.67
2018-04-13T17:37:07.707Z,3.37
2018-04-13T17:39:35.536Z,3.40
2018-04-13T17:42:03.340Z,3.80
2018-04-13T17:44:31.716Z,2.93
2018-04-13T17:47:00.370Z,3.23
2018-04-13T17:49:28.943Z,2.93
2018-04-13T17:51:56.707Z,2.40
2018-04-13T17:54:24.473Z,2.50
2018-04-13T17:56:52.339Z,2.53
2018-04-13T17:59:20.049Z,2.63
2018-04-13T18:01:48.689Z,2.93
2018-04-13T18:04:16.553Z,3.03
2018-04-13T18:06:44.164Z,3.27
2018-04-13T18:09:12.552Z,3.20
2018-04-13T18:11:40.903Z,2.50
2018-04-13T18:14:08.514Z,3.63
2018-04-13T18:16:36.104Z,3.50
2018-04-13T18:19:03.734Z,3.03
2018-04-13T18:21:31.319Z,3.17
2018-04-13T18:23:58.945Z,2.60
2018-04-13T18:26:26.539Z,3.00
2018-04-13T18:28:54.162Z,2.93
2018-04-13T18:31:21.761Z,3.30
2018-04-13T18:33:49.412Z,3.10
2018-04-13T18:36:17.005Z,3.00
2018-04-13T18:38:44.624Z,3.40
2018-04-13T18:41:12.214Z,3.60
2018-04-13T18:43:39.836Z,3.27
2018-04-13T18:46:07.419Z,3.30
2018-04-13T18:48:35.002Z,5.70
2018-04-13T18:51:02.621Z,4.57
2018-04-13T18:53:30.208Z,5.10
2018-04-13T18:55:57.822Z,5.07
2018-04-13T18:58:26.187Z,5.77
2018-04-13T19:00:54.585Z,5.00
2018-04-13T19:03:22.174Z,6.17
2018-04-13T19:05:49.787Z,6.33
2018-04-13T19:08:18.146Z,6.50
2018-04-13T19:10:45.745Z,6.83
2018-04-13T19:13:14.171Z,5.23
2018-04-13T19:15:41.766Z,7.03
2018-04-13T19:18:10.150Z,5.67
2018-04-13T19:20:38.514Z,5.90
2018-04-13T19:23:06.130Z,6.70
2018-04-13T19:25:33.715Z,5.70
2018-04-13T19:28:01.342Z,7.10
2018-04-13T19:30:28.936Z,7.07
2018-04-13T19:32:56.547Z,6.60
2018-04-13T19:35:24.909Z,6.40
2018-04-13T19:37:53.293Z,8.70
2018-04-13T19:40:21.651Z,9.63
2018-04-13T19:42:49.275Z,8.60
2018-04-13T19:45:16.930Z,7.27
2018-04-13T19:47:45.290Z,8.83
2018-04-13T19:50:12.884Z,7.60
2018-04-13T19:52:40.510Z,6.87
2018-04-13T19:55:08.119Z,7.50
2018-04-13T19:57:35.734Z,9.40
2018-04-13T20:00:03.333Z,10.90
2018-04-13T20:02:30.950Z,12.57
2018-04-13T20:04:58.557Z,12.53
2018-04-13T20:07:26.187Z,15.50
2018-04-13T20:09:53.787Z,14.70
2018-04-13T20:12:21.380Z,14.50
2018-04-13T20:14:49.769Z,16.20
2018-04-13T20:17:18.134Z,23.33
2018-04-13T20:19:46.575Z,22.63
2018-04-13T20:22:14.197Z,21.80
2018-04-13T20:24:41.816Z,24.23
2018-04-13T20:27:10.218Z,22.50
2018-04-13T20:29:38.635Z,19.30
2018-04-13T20:32:06.231Z,15.60
2018-04-13T20:34:33.858Z,19.87
2018-04-13T20:37:01.455Z,12.67
2018-04-13T20:39:29.840Z,23.00
2018-04-13T20:41:58.314Z,20.10
2018-04-13T20:44:25.959Z,19.77
2018-04-13T20:46:53.550Z,23.70
2018-04-13T20:49:21.156Z,22.20
2018-04-13T20:51:48.809Z,23.00
2018-04-13T20:54:16.416Z,24.63
2018-04-13T20:56:44.039Z,20.73
2018-04-13T20:59:11.639Z,23.13
2018-04-13T21:01:39.264Z,24.93
2018-04-13T21:04:06.866Z,28.73
2018-04-13T21:06:34.496Z,27.40
2018-04-13T21:09:02.093Z,29.90
2018-04-13T21:11:30.472Z,31.93
2018-04-13T21:13:58.861Z,31.50
2018-04-13T21:16:27.231Z,30.83
2018-04-13T21:18:54.852Z,30.20
2018-04-13T21:21:22.451Z,32.33
2018-04-13T21:23:50.087Z,31.80
2018-04-13T21:26:17.965Z,33.77
2018-04-13T21:28:45.595Z,34.40
2018-04-13T21:31:13.202Z,36.07
2018-04-13T21:33:40.823Z,36.10
2018-04-13T21:36:08.495Z,38.70
2018-04-13T21:38:36.130Z,40.70
2018-04-13T21:41:03.726Z,40.00
2018-04-13T21:43:31.355Z,38.10
2018-04-13T21:45:58.950Z,41.77
2018-04-13T21:48:26.566Z,44.10
2018-04-13T21:50:54.171Z,40.27
2018-04-13T21:53:21.794Z,38.97
2018-04-13T21:55:49.427Z,41.63
2018-04-13T21:58:17.829Z,42.00
2018-04-13T22:00:45.434Z,39.93
2018-04-13T22:03:13.355Z,37.50
2018-04-13T22:05:41.742Z,34.77
2018-04-13T22:08:09.334Z,39.27
2018-04-13T22:10:36.957Z,36.97
2018-04-13T22:13:16.626Z,37.57
2018-04-13T22:15:44.246Z,35.63
2018-04-13T22:18:12.614Z,35.07
2018-04-13T22:20:40.247Z,36.20
2018-04-13T22:23:07.853Z,35.43
2018-04-13T22:25:36.234Z,39.40
2018-04-13T22:28:04.598Z,39.33
2018-04-13T22:30:32.983Z,38.00
2018-04-13T22:33:01.338Z,31.67
2018-04-13T22:35:29.717Z,36.23
2018-04-13T22:37:57.306Z,38.00
2018-04-13T22:40:25.691Z,35.70
2018-04-13T22:42:53.286Z,36.67
2018-04-13T22:45:20.906Z,36.40
2018-04-13T22:47:49.262Z,35.10
2018-04-13T22:50:16.935Z,36.60
2018-04-13T22:52:44.514Z,38.80
2018-04-13T22:55:12.135Z,36.60
2018-04-13T22:57:39.730Z,31.70
2018-04-13T23:00:07.359Z,24.53
2018-04-13T23:02:34.951Z,34.37
2018-04-13T23:05:02.585Z,26.60
2018-04-13T23:07:30.222Z,36.10
2018-04-13T23:09:57.818Z,29.20
2018-04-13T23:12:25.430Z,30.57
2018-04-13T23:14:53.050Z,32.93
2018-04-13T23:17:21.438Z,39.10
2018-04-13T23:19:49.803Z,33.43
2018-04-13T23:22:30.066Z,35.83
2018-04-13T23:24:58.425Z,25.07
2018-04-13T23:27:26.062Z,27.40
2018-04-13T23:29:53.655Z,36.20
2018-04-13T23:32:21.259Z,35.80
2018-04-13T23:34:48.890Z,25.20
2018-04-13T23:37:17.254Z,30.50
2018-04-13T23:39:44.862Z,35.50
2018-04-13T23:42:12.493Z,35.97
2018-04-13T23:44:40.849Z,36.20
2018-04-13T23:47:08.438Z,34.60
2018-04-13T23:49:36.071Z,27.60
2018-04-13T23:52:03.658Z,37.73
2018-04-13T23:54:32.017Z,35.23
2018-04-13T23:57:00.413Z,32.83
2018-04-13T23:59:28.775Z,40.03
